Time;durP1;ratioP1;P1;durP2;ratioP2;P2;SDS_P1;SDS_P2;PMS_P1;PMS_P2;Temp;Humidity;BMP_temperature;BMP_pressure;BME280_temperature;BME280_humidity;BME280_pressure;Samples;Min_cycle;Max_cycle;Signal;HPM_P1;HPM_P2
2022/09/12 00:00:07;;;;;;;25.10;18.50;;;;;;;12.62;100.00;100956.97;679134;28;1344;-84
2022/09/12 00:00:53;;;;;;;26.77;19.25;;;;;;;12.55;100.00;100953.53;684701;28;1148;-86
2022/09/12 00:01:20;;;;;;;26.63;17.98;;;;;;;12.58;100.00;100944.78;683135;28;2073;-85
2022/09/12 00:01:52;;;;;;;28.30;19.52;;;;;;;12.55;100.00;100943.03;684812;28;2471;-86
2022/09/12 00:02:39;;;;;;;27.40;19.40;;;;;;;12.53;100.00;100941.31;685067;28;4795;-85
2022/09/12 00:03:09;;;;;;;25.85;17.85;;;;;;;12.57;100.00;100954.41;684468;28;1207;-85
2022/09/12 00:03:33;;;;;;;26.92;18.70;;;;;;;12.52;100.00;100934.34;682366;28;1461;-85
2022/09/12 00:04:02;;;;;;;27.77;19.50;;;;;;;12.46;100.00;100948.38;680929;29;1214;-86
2022/09/12 00:04:31;;;;;;;25.73;18.42;;;;;;;12.38;100.00;100948.44;683443;28;1345;-85
2022/09/12 00:05:13;;;;;;;28.70;18.75;;;;;;;12.34;100.00;100943.25;680319;28;4453;-85
2022/09/12 00:05:46;;;;;;;27.63;19.75;;;;;;;12.25;100.00;100942.44;686214;28;1301;-85
2022/09/12 00:06:36;;;;;;;28.13;20.20;;;;;;;12.25;100.00;100954.63;683913;28;1330;-85
2022/09/12 00:07:40;;;;;;;28.23;18.80;;;;;;;12.35;100.00;100963.31;685992;28;1349;-85
2022/09/12 00:08:11;;;;;;;27.15;18.73;;;;;;;12.39;100.00;100959.78;679781;28;4288;-84
2022/09/12 00:08:41;;;;;;;28.30;19.38;;;;;;;12.37;100.00;100941.44;684092;28;1490;-85
2022/09/12 00:09:08;;;;;;;27.45;19.15;;;;;;;12.35;100.00;100966.81;683892;28;1328;-85
2022/09/12 00:09:31;;;;;;;28.85;19.35;;;;;;;12.35;100.00;100952.81;683783;28;1359;-86
2022/09/12 00:09:52;;;;;;;26.85;18.73;;;;;;;12.38;100.00;100937.09;677644;29;1384;-85
2022/09/12 00:10:16;;;;;;;26.85;18.38;;;;;;;12.42;100.00;100976.38;677827;29;1294;-85
2022/09/12 00:10:47;;;;;;;26.63;17.83;;;;;;;12.41;100.00;100939.69;677986;28;1225;-87
2022/09/12 00:11:16;;;;;;;27.27;18.55;;;;;;;12.40;100.00;100957.16;679575;28;5291;-86
2022/09/12 00:12:13;;;;;;;29.45;19.17;;;;;;;12.43;100.00;100951.91;681127;28;1315;-83
2022/09/12 00:13:00;;;;;;;27.67;18.35;;;;;;;12.49;100.00;100950.09;677038;29;1307;-86
2022/09/12 00:13:23;;;;;;;24.30;17.67;;;;;;;12.57;100.00;100930.81;679391;28;1513;-86
2022/09/12 00:14:05;;;;;;;;;;;;;;;;;;;;;
2022/09/12 00:14:32;;;;;;;27.63;18.83;;;;;;;12.38;100.00;100950.19;686880;28;1266;-83
2022/09/12 00:14:59;;;;;;;28.67;19.15;;;;;;;12.41;100.00;100934.44;685760;28;1446;-85
2022/09/12 00:15:22;;;;;;;28.38;19.08;;;;;;;12.39;100.00;100930.94;682896;28;1451;-86
2022/09/12 00:15:46;;;;;;;28.13;18.92;;;;;;;12.34;100.00;100946.72;681701;28;1476;-85
2022/09/12 00:16:26;;;;;;;27.42;18.80;;;;;;;12.32;100.00;100956.31;685242;28;1300;-84
2022/09/12 00:17:06;;;;;;;;;;;;;;;;;;;;;
2022/09/12 00:17:39;;;;;;;25.25;18.15;;;;;;;12.49;100.00;100929.13;677408;29;4912;-85
2022/09/12 00:18:00;;;;;;;27.55;18.88;;;;;;;12.47;100.00;100929.13;680822;28;1918;-85
2022/09/12 00:18:21;;;;;;;27.65;18.63;;;;;;;12.44;100.00;100947.50;679999;29;1390;-86
2022/09/12 00:18:50;;;;;;;28.70;18.80;;;;;;;12.40;100.00;100927.44;679593;28;1287;-86
2022/09/12 00:19:24;;;;;;;;;;;;;;;;;;;;;
2022/09/12 00:19:51;;;;;;;23.55;18.17;;;;;;;12.50;100.00;100936.09;682816;28;1373;-86
2022/09/12 00:20:19;;;;;;;27.13;19.17;;;;;;;12.54;100.00;100933.44;669527;29;4814;-85
2022/09/12 00:20:45;;;;;;;25.67;18.23;;;;;;;12.56;100.00;100936.94;683302;28;1247;-86
2022/09/12 00:21:07;;;;;;;26.73;19.23;;;;;;;12.62;100.00;100929.91;674682;29;1454;-86
2022/09/12 00:21:28;;;;;;;24.77;17.92;;;;;;;12.63;100.00;100929.00;676296;29;1188;-87
2022/09/12 00:21:58;;;;;;;23.98;17.83;;;;;;;12.66;100.00;100952.59;678256;29;1188;-85
2022/09/12 00:22:19;;;;;;;24.65;17.75;;;;;;;12.64;100.00;100925.50;674857;29;1456;-85
2022/09/12 00:22:40;;;;;;;24.52;17.85;;;;;;;12.69;100.00;100926.31;675767;29;1279;-86
2022/09/12 00:23:19;;;;;;;26.35;18.08;;;;;;;12.77;100.00;100925.34;677494;29;4442;-85
2022/09/12 00:23:53;;;;;;;27.52;19.38;;;;;;;12.55;100.00;100943.03;679326;28;1411;-89
2022/09/12 00:24:14;;;;;;;28.13;19.42;;;;;;;12.55;100.00;100919.44;687874;28;1327;-85
2022/09/12 00:24:39;;;;;;;27.38;19.13;;;;;;;12.60;100.00;100946.50;687102;28;1362;-85
2022/09/12 00:25:10;;;;;;;27.30;18.83;;;;;;;12.60;100.00;100938.63;683726;28;1501;-84
2022/09/12 00:25:31;;;;;;;28.50;19.00;;;;;;;12.57;100.00;100941.28;679684;29;1375;-87
2022/09/12 00:26:06;;;;;;;26.73;18.70;;;;;;;12.58;100.00;100950.03;671377;28;4338;-87
2022/09/12 00:26:48;;;;;;;26.65;18.83;;;;;;;12.53;100.00;100920.34;679525;29;3655;-85
2022/09/12 00:27:29;;;;;;;28.38;19.05;;;;;;;12.49;100.00;100919.50;680125;28;2202;-85
2022/09/12 00:28:06;;;;;;;;;;;;;;;;;;;;;
2022/09/12 00:28:35;;;;;;;28.27;19.48;;;;;;;12.41;100.00;100923.94;681647;28;1316;-84
2022/09/12 00:29:09;;;;;;;25.98;18.05;;;;;;;12.46;100.00;100929.16;671161;28;4327;-87
2022/09/12 00:29:53;;;;;;;27.63;18.55;;;;;;;12.44;100.00;100910.81;684233;28;1187;-83
2022/09/12 00:30:23;;;;;;;29.77;19.65;;;;;;;12.38;100.00;100918.75;684155;28;1470;-84
2022/09/12 00:30:56;;;;;;;26.95;18.55;;;;;;;12.43;100.00;100920.44;682430;28;1361;-82
2022/09/12 00:31:35;;;;;;;24.73;18.42;;;;;;;12.48;100.00;100915.16;684533;28;1331;-87
2022/09/12 00:32:02;;;;;;;26.02;17.85;;;;;;;12.52;100.00;100940.47;675563;28;4378;-84
2022/09/12 00:32:23;;;;;;;24.83;18.30;;;;;;;12.48;100.00;100933.50;682598;28;1172;-85
2022/09/12 00:32:49;;;;;;;25.60;17.60;;;;;;;12.48;100.00;100953.63;678820;29;1244;-84
2022/09/12 00:33:36;;;;;;;25.98;17.88;;;;;;;12.53;100.00;100936.97;678893;29;1489;-85
2022/09/12 00:34:11;;;;;;;26.98;18.38;;;;;;;12.52;100.00;100931.72;682515;28;1429;-86
2022/09/12 00:34:35;;;;;;;26.02;18.67;;;;;;;12.40;100.00;100915.19;679943;29;1172;-85
2022/09/12 00:35:11;;;;;;;23.63;17.67;;;;;;;12.42;100.00;100920.44;676777;29;4300;-87
2022/09/12 00:35:33;;;;;;;24.80;18.00;;;;;;;12.42;100.00;100926.56;675274;29;2335;-84
2022/09/12 00:35:56;;;;;;;24.88;18.00;;;;;;;12.39;100.00;100917.84;675685;29;1337;-86
2022/09/12 00:36:31;;;;;;;26.40;18.48;;;;;;;12.45;100.00;100933.53;677002;29;1509;-84
2022/09/12 00:36:55;;;;;;;24.80;17.52;;;;;;;12.53;100.00;100920.34;676162;29;1253;-85
2022/09/12 00:37:18;;;;;;;26.67;18.67;;;;;;;12.60;100.00;100919.44;674968;29;1294;-84
2022/09/12 00:37:42;;;;;;;24.65;18.10;;;;;;;12.62;100.00;100943.88;677867;29;1373;-85
2022/09/12 00:38:06;;;;;;;25.00;17.90;;;;;;;12.56;100.00;100931.69;678999;28;5335;-86
2022/09/12 00:38:37;;;;;;;26.08;18.15;;;;;;;12.55;100.00;100911.56;680135;28;1442;-84
2022/09/12 00:39:00;;;;;;;24.80;18.00;;;;;;;12.53;100.00;100920.34;680227;29;1460;-85
2022/09/12 00:39:24;;;;;;;25.77;17.60;;;;;;;12.52;100.00;100924.72;678600;29;1318;-84
2022/09/12 00:39:52;;;;;;;25.75;17.30;;;;;;;12.49;100.00;100936.97;679668;28;1340;-85
2022/09/12 00:40:16;;;;;;;25.45;17.20;;;;;;;12.48;100.00;100920.38;680112;29;912;-85
2022/09/12 00:40:37;;;;;;;26.05;18.05;;;;;;;12.47;100.00;100923.03;675261;29;1352;-85
2022/09/12 00:41:05;;;;;;;24.45;17.25;;;;;;;12.51;100.00;100917.72;674702;29;4326;-84
2022/09/12 00:41:32;;;;;;;24.00;17.33;;;;;;;12.55;100.00;100929.94;678323;29;1302;-85
2022/09/12 00:41:56;;;;;;;23.88;17.20;;;;;;;12.63;100.00;100936.84;680524;29;1231;-85
2022/09/12 00:42:22;;;;;;;25.27;17.42;;;;;;;12.50;100.00;100926.50;678389;29;1348;-84
2022/09/12 00:42:48;;;;;;;24.83;17.70;;;;;;;12.46;100.00;100916.94;673043;29;1241;-86
2022/09/12 00:43:37;;;;;;;24.05;17.50;;;;;;;12.49;100.00;100916.00;678448;29;1433;-85
2022/09/12 00:44:01;;;;;;;26.30;18.10;;;;;;;12.46;100.00;100914.31;680618;28;5048;-85
2022/09/12 00:44:25;;;;;;;26.98;18.05;;;;;;;12.41;100.00;100916.94;682830;28;1293;-84
2022/09/12 00:44:50;;;;;;;27.38;17.77;;;;;;;12.36;100.00;100933.59;678406;29;1314;-86
2022/09/12 00:45:23;;;;;;;24.42;17.90;;;;;;;12.34;100.00;100924.88;680870;28;1598;-85
2022/09/12 00:45:56;;;;;;;26.30;17.45;;;;;;;12.36;100.00;100923.09;675171;29;1340;-84
2022/09/12 00:46:58;;;;;;;26.08;17.30;;;;;;;12.29;100.00;100931.91;688050;28;1387;-85
2022/09/12 00:47:27;;;;;;;25.42;18.00;;;;;;;12.19;100.00;100938.97;674399;29;4887;-86
2022/09/12 00:48:20;;;;;;;25.90;18.73;;;;;;;12.05;100.00;100925.97;676697;29;1261;-87
2022/09/12 00:49:15;;;;;;;25.98;18.45;;;;;;;11.98;100.00;100912.03;683416;29;1304;-83
2022/09/12 00:49:48;;;;;;;26.30;18.80;;;;;;;12.00;100.00;100919.88;684499;28;1424;-85
2022/09/12 00:50:25;;;;;;;23.90;17.13;;;;;;;12.02;100.00;100933.84;668932;29;4907;-84
2022/09/12 00:50:46;;;;;;;24.27;17.52;;;;;;;12.05;100.00;100918.97;680438;29;1375;-85
2022/09/12 00:51:29;;;;;;;26.30;17.92;;;;;;;12.07;100.00;100918.94;677120;29;1286;-86
2022/09/12 00:52:07;;;;;;;24.65;17.58;;;;;;;12.06;100.00;100933.81;676839;29;1270;-86
2022/09/12 00:52:42;;;;;;;24.77;17.40;;;;;;;12.10;100.00;100952.97;675283;29;1508;-86
2022/09/12 00:53:12;;;;;;;24.67;17.85;;;;;;;12.13;100.00;100931.13;670771;28;4281;-87
2022/09/12 00:53:38;;;;;;;25.10;17.63;;;;;;;12.02;100.00;100912.88;679716;28;1090;-84
2022/09/12 00:54:11;;;;;;;26.38;18.08;;;;;;;11.93;100.00;100909.41;681707;29;1296;-85
2022/09/12 00:54:48;;;;;;;27.88;18.60;;;;;;;11.87;100.00;100914.69;678714;29;1459;-85
2022/09/12 00:55:15;;;;;;;28.92;18.20;;;;;;;11.85;100.00;100936.53;679322;28;2681;-85
2022/09/12 00:55:42;;;;;;;27.10;18.85;;;;;;;11.82;100.00;100908.59;681284;29;1263;-85
2022/09/12 00:56:03;;;;;;;28.08;18.83;;;;;;;11.81;100.00;100911.22;679560;28;4393;-85
2022/09/12 00:56:46;;;;;;;27.83;18.65;;;;;;;11.82;100.00;100942.63;679723;29;1154;-85
2022/09/12 00:57:12;;;;;;;26.30;17.88;;;;;;;11.89;100.00;100907.69;682559;28;1487;-85
2022/09/12 00:57:48;;;;;;;25.25;16.90;;;;;;;12.11;100.00;100906.69;679456;28;1537;-85
2022/09/12 00:58:23;;;;;;;26.58;17.95;;;;;;;12.11;100.00;100931.16;680145;29;1296;-84
2022/09/12 00:59:10;;;;;;;25.20;17.30;;;;;;;12.05;100.00;100918.97;680942;28;1420;-84
2022/09/12 00:59:47;;;;;;;25.98;17.92;;;;;;;11.98;100.00;100927.75;677823;29;4744;-84
2022/09/12 01:00:28;;;;;;;27.92;18.35;;;;;;;11.90;100.00;100927.75;683046;28;1333;-84
2022/09/12 01:01:06;;;;;;;25.27;17.63;;;;;;;11.92;100.00;100905.03;683117;28;1338;-84
2022/09/12 01:01:42;;;;;;;27.33;17.45;;;;;;;12.03;100.00;100919.84;684809;28;1238;-84
2022/09/12 01:02:22;;;;;;;25.70;18.38;;;;;;;11.92;100.00;100905.03;670520;28;4754;-86
2022/09/12 01:02:55;;;;;;;25.23;17.80;;;;;;;11.86;100.00;100926.03;678876;29;1568;-84
2022/09/12 01:03:24;;;;;;;24.70;17.40;;;;;;;11.84;100.00;100921.69;678603;29;1276;-85
2022/09/12 01:04:05;;;;;;;27.25;17.75;;;;;;;11.84;100.00;100925.19;681936;28;1409;-85
2022/09/12 01:04:30;;;;;;;26.67;17.92;;;;;;;11.91;100.00;100945.22;680602;28;1373;-85
2022/09/12 01:04:53;;;;;;;26.10;17.75;;;;;;;11.88;100.00;100919.03;682667;28;4534;-85
2022/09/12 01:05:27;;;;;;;;;;;;;;;;;;;;;
2022/09/12 01:06:15;;;;;;;25.30;17.35;;;;;;;12.08;100.00;100905.81;679884;28;1425;-85
2022/09/12 01:07:04;;;;;;;25.38;17.23;;;;;;;12.04;100.00;100922.44;687661;28;1433;-86
2022/09/12 01:08:46;;;;;;;26.40;18.65;;;;;;;11.86;100.00;100933.88;675161;29;4480;-83
2022/09/12 01:09:08;;;;;;;24.60;17.75;;;;;;;11.73;100.00;100927.00;674950;29;1376;-84
2022/09/12 01:09:39;;;;;;;25.60;18.23;;;;;;;11.68;100.00;100934.84;680016;29;1415;-83
2022/09/12 01:10:15;;;;;;;26.83;17.83;;;;;;;11.70;100.00;100929.59;675272;29;1273;-84
2022/09/12 01:10:42;;;;;;;26.08;18.02;;;;;;;11.74;100.00;100913.00;677915;29;1141;-84
2022/09/12 01:11:13;;;;;;;26.65;17.60;;;;;;;11.82;100.00;100928.69;681665;28;4349;-84
2022/09/12 01:11:56;;;;;;;25.40;17.63;;;;;;;11.90;100.00;100913.78;681251;28;1434;-84
2022/09/12 01:12:26;;;;;;;24.27;16.85;;;;;;;11.93;100.00;100914.66;678519;29;1185;-85
2022/09/12 01:13:06;;;;;;;23.48;17.00;;;;;;;11.96;100.00;100918.16;677482;29;1345;-85
2022/09/12 01:13:44;;;;;;;27.15;17.58;;;;;;;11.97;100.00;100923.38;675380;29;1930;-84
2022/09/12 01:14:26;;;;;;;24.65;17.00;;;;;;;11.97;100.00;100894.56;681146;28;5022;-83
2022/09/12 01:15:03;;;;;;;25.45;16.98;;;;;;;11.95;100.00;100921.66;681960;28;1438;-84
2022/09/12 01:15:37;;;;;;;;;;;;;;;;;;;;;
2022/09/12 01:16:07;;;;;;;24.25;17.60;;;;;;;11.67;100.00;100898.19;682234;28;1263;-85
2022/09/12 01:16:51;;;;;;;25.33;17.13;;;;;;;11.75;100.00;100922.59;676403;29;1277;-84
2022/09/12 01:17:32;;;;;;;26.50;17.67;;;;;;;11.73;100.00;100925.22;676098;28;4848;-86
2022/09/12 01:18:24;;;;;;;25.33;16.95;;;;;;;11.73;100.00;100903.41;680659;29;1910;-85
2022/09/12 01:19:14;;;;;;;27.40;17.65;;;;;;;11.67;100.00;100909.56;679163;29;1434;-85
2022/09/12 01:20:08;;;;;;;24.45;17.35;;;;;;;11.62;100.00;100903.47;678972;28;1401;-84
2022/09/12 01:20:56;;;;;;;24.92;17.48;;;;;;;11.58;100.00;100905.22;671130;29;4781;-85
2022/09/12 01:21:50;;;;;;;27.17;17.17;;;;;;;11.69;100.00;100909.56;678412;29;1326;-86
2022/09/12 01:22:44;;;;;;;24.20;16.92;;;;;;;11.66;100.00;100904.31;676450;29;1339;-87
2022/09/12 01:23:32;;;;;;;25.25;17.15;;;;;;;11.65;100.00;100910.44;672877;28;4344;-86
2022/09/12 01:24:31;;;;;;;23.90;17.27;;;;;;;11.76;100.00;100906.88;681188;28;1246;-84
2022/09/12 01:25:13;;;;;;;24.95;17.33;;;;;;;11.80;100.00;100907.75;680940;28;1207;-85
2022/09/12 01:26:02;;;;;;;25.75;16.52;;;;;;;11.70;100.00;100906.03;683086;28;1280;-85
2022/09/12 01:26:55;;;;;;;27.77;17.65;;;;;;;11.62;100.00;100936.66;684293;28;4746;-85
2022/09/12 01:28:13;;;;;;;23.30;16.60;;;;;;;11.76;100.00;100904.25;681033;28;1368;-84
2022/09/12 01:28:40;;;;;;;22.30;16.42;;;;;;;11.74;100.00;100905.13;674981;29;1410;-84
2022/09/12 01:29:38;;;;;;;23.13;16.77;;;;;;;11.71;100.00;100907.78;672910;29;4369;-84
2022/09/12 01:30:42;;;;;;;22.98;16.88;;;;;;;11.64;100.00;100911.31;668555;29;1558;-84
2022/09/12 01:31:26;;;;;;;26.17;17.38;;;;;;;11.66;100.00;100922.63;669755;29;1387;-85
2022/09/12 01:32:26;;;;;;;22.98;16.42;;;;;;;11.67;100.00;100906.06;670870;29;1346;-84
2022/09/12 01:33:10;;;;;;;24.67;16.67;;;;;;;11.54;100.00;100913.13;670350;29;4866;-87
2022/09/12 01:33:46;;;;;;;23.80;17.00;;;;;;;11.51;100.00;100934.94;672017;29;909;-85
2022/09/12 01:34:33;;;;;;;23.70;17.02;;;;;;;11.57;100.00;100908.75;675362;29;1313;-86
2022/09/12 01:35:36;;;;;;;25.80;17.05;;;;;;;11.71;100.00;100910.41;678230;29;1443;-86
2022/09/12 01:36:12;;;;;;;23.58;15.90;;;;;;;11.79;100.00;100906.00;679171;28;1262;-84
2022/09/12 01:36:59;;;;;;;25.05;16.85;;;;;;;11.65;100.00;100915.69;680581;28;1288;-84
2022/09/12 01:37:43;;;;;;;23.25;16.20;;;;;;;11.65;100.00;100905.22;681682;28;1372;-86
2022/09/12 01:38:26;;;;;;;23.75;16.73;;;;;;;11.59;100.00;100901.75;681209;28;4365;-84
2022/09/12 01:39:19;;;;;;;26.40;16.67;;;;;;;11.53;100.00;100895.66;684007;28;1382;-85
2022/09/12 01:40:24;;;;;;;24.30;17.13;;;;;;;11.58;100.00;100892.13;681542;28;1393;-84
2022/09/12 01:41:11;;;;;;;22.75;16.88;;;;;;;11.61;100.00;100909.59;676616;29;1435;-85
2022/09/12 01:41:39;;;;;;;23.58;16.90;;;;;;;11.60;100.00;100899.97;670605;28;4885;-85
2022/09/12 01:42:14;;;;;;;23.48;16.30;;;;;;;11.57;100.00;100900.00;682596;28;1276;-86
2022/09/12 01:43:28;;;;;;;;;;;;;;;;;;;;;
2022/09/12 01:44:07;;;;;;;23.48;17.17;;;;;;;11.37;100.00;100892.25;685211;28;1195;-83
2022/09/12 01:44:49;;;;;;;24.05;16.77;;;;;;;11.35;100.00;100894.88;671302;28;4873;-85
2022/09/12 01:45:23;;;;;;;24.27;16.80;;;;;;;11.31;100.00;100918.44;684745;28;1305;-86
2022/09/12 01:46:16;;;;;;;24.15;16.50;;;;;;;11.27;100.00;100895.78;682799;28;1496;-86
2022/09/12 01:47:18;;;;;;;;;;;;;;;;;;;;;
2022/09/12 01:47:47;;;;;;;24.08;16.42;;;;;;;11.25;100.00;100925.44;663362;29;4762;-85
2022/09/12 01:48:34;;;;;;;23.55;16.27;;;;;;;11.31;100.00;100910.59;678259;29;1390;-85
2022/09/12 01:49:19;;;;;;;24.77;17.33;;;;;;;11.38;100.00;100897.47;680815;28;1354;-86
2022/09/12 01:50:17;;;;;;;23.20;16.40;;;;;;;11.46;100.00;100891.34;678888;28;1185;-85
2022/09/12 01:51:03;;;;;;;23.38;17.10;;;;;;;11.40;100.00;100914.03;680266;29;1132;-83
2022/09/12 01:51:57;;;;;;;;;;;;;;;;;;;;;
2022/09/12 01:52:31;;;;;;;23.10;16.58;;;;;;;11.45;100.00;100890.47;681765;28;1311;-84
2022/09/12 01:52:57;;;;;;;24.13;16.40;;;;;;;11.48;100.00;100906.16;683542;28;4509;-87
2022/09/12 01:53:35;;;;;;;23.73;16.58;;;;;;;11.40;100.00;100903.56;680841;28;1292;-84
2022/09/12 01:54:11;;;;;;;23.10;16.50;;;;;;;11.38;100.00;100907.94;685063;28;1509;-84
2022/09/12 01:54:43;;;;;;;23.58;16.48;;;;;;;11.42;100.00;100900.94;680566;29;1434;-85
2022/09/12 01:55:19;;;;;;;24.30;16.17;;;;;;;11.46;100.00;100905.28;683531;28;1267;-87
2022/09/12 01:55:49;;;;;;;21.88;15.68;;;;;;;11.51;100.00;100889.56;679440;29;1290;-84
2022/09/12 01:56:27;;;;;;;24.17;16.23;;;;;;;11.50;100.00;100891.31;678476;28;4782;-85
2022/09/12 01:57:02;;;;;;;22.70;16.02;;;;;;;11.49;100.00;100894.81;675457;29;940;-85
2022/09/12 01:57:29;;;;;;;21.05;15.93;;;;;;;11.53;100.00;100899.16;683692;28;1349;-85
2022/09/12 01:58:14;;;;;;;21.58;15.93;;;;;;;11.52;100.00;100910.50;676544;29;1910;-85
2022/09/12 01:58:39;;;;;;;24.85;17.02;;;;;;;11.50;100.00;100899.16;680647;29;1274;-85
2022/09/12 01:59:08;;;;;;;22.45;15.95;;;;;;;11.55;100.00;100880.84;679851;28;4398;-83
2022/09/12 01:59:43;;;;;;;25.17;16.80;;;;;;;11.58;100.00;100891.28;678346;29;1138;-85
2022/09/12 02:00:09;;;;;;;21.83;16.15;;;;;;;11.57;100.00;100879.06;673198;29;1325;-84
2022/09/12 02:00:42;;;;;;;24.63;16.48;;;;;;;11.51;100.00;100890.44;676392;29;701;-87
2022/09/12 02:01:08;;;;;;;24.98;16.27;;;;;;;11.49;100.00;100884.34;680808;29;1218;-85
2022/09/12 02:01:54;;;;;;;22.33;15.75;;;;;;;11.58;100.00;100914.84;677780;29;1174;-85
2022/09/12 02:02:25;;;;;;;22.17;15.60;;;;;;;11.49;100.00;100899.16;676981;29;4741;-84
2022/09/12 02:03:01;;;;;;;23.90;15.88;;;;;;;11.40;100.00;100884.38;681986;28;1456;-85
2022/09/12 02:03:32;;;;;;;21.40;15.48;;;;;;;11.46;100.00;100881.72;680423;28;1213;-83
2022/09/12 02:04:33;;;;;;;22.42;15.35;;;;;;;11.54;100.00;100884.31;679710;28;1027;-84
2022/09/12 02:05:28;;;;;;;21.63;15.57;;;;;;;11.56;100.00;100898.25;680269;28;5258;-85
2022/09/12 02:06:00;;;;;;;20.77;15.27;;;;;;;11.51;100.00;100885.19;676579;29;1356;-86
2022/09/12 02:06:31;;;;;;;22.30;15.90;;;;;;;11.47;100.00;100914.88;684928;28;1411;-85
2022/09/12 02:06:58;;;;;;;22.95;15.43;;;;;;;11.49;100.00;100896.56;683488;28;1652;-87
2022/09/12 02:07:35;;;;;;;21.00;15.10;;;;;;;11.36;100.00;100919.31;680066;29;1332;-86
2022/09/12 02:08:12;;;;;;;23.20;15.70;;;;;;;11.25;100.00;100912.34;682210;28;4424;-85
2022/09/12 02:08:50;;;;;;;21.33;15.73;;;;;;;11.35;100.00;100878.28;678240;29;1409;-85
2022/09/12 02:09:24;;;;;;;23.67;15.77;;;;;;;11.32;100.00;100894.00;677450;29;1167;-84
2022/09/12 02:09:58;;;;;;;21.85;15.68;;;;;;;11.22;100.00;100883.56;684076;28;1262;-84
2022/09/12 02:10:27;;;;;;;22.50;15.68;;;;;;;11.16;100.00;100875.75;683565;28;1400;-85
2022/09/12 02:10:59;;;;;;;22.98;15.32;;;;;;;11.23;100.00;100910.63;683603;28;1468;-84
2022/09/12 02:11:21;;;;;;;23.92;15.95;;;;;;;11.21;100.00;100900.16;677361;29;4988;-85
2022/09/12 02:11:43;;;;;;;24.83;15.82;;;;;;;11.22;100.00;100875.72;677449;28;1247;-87
2022/09/12 02:12:12;;;;;;;26.17;16.40;;;;;;;11.23;100.00;100911.50;677202;29;1554;-85
2022/09/12 02:12:43;;;;;;;23.00;16.15;;;;;;;11.20;100.00;100906.28;679069;29;1253;-84
2022/09/12 02:13:33;;;;;;;23.60;15.82;;;;;;;11.20;100.00;100879.22;680461;28;1341;-84
2022/09/12 02:14:05;;;;;;;22.58;16.10;;;;;;;11.24;100.00;100874.00;675878;28;4335;-84
2022/09/12 02:14:50;;;;;;;23.30;16.08;;;;;;;11.29;100.00;100870.47;680609;28;1344;-85
2022/09/12 02:15:16;;;;;;;21.73;15.30;;;;;;;11.28;100.00;100890.53;680147;29;1192;-84
2022/09/12 02:15:49;;;;;;;21.02;15.52;;;;;;;11.42;100.00;100890.47;682950;28;1217;-84
2022/09/12 02:16:30;;;;;;;20.17;14.95;;;;;;;11.44;100.00;100874.75;681057;29;1259;-86
2022/09/12 02:17:01;;;;;;;21.58;15.48;;;;;;;11.45;100.00;100887.84;681570;28;4330;-84
2022/09/12 02:17:25;;;;;;;21.92;15.50;;;;;;;11.42;100.00;100882.63;677761;29;1380;-85
2022/09/12 02:17:49;;;;;;;22.70;15.73;;;;;;;11.36;100.00;100895.75;683333;28;1390;-85
2022/09/12 02:18:17;;;;;;;20.88;15.20;;;;;;;11.24;100.00;100871.38;679649;28;1259;-85
2022/09/12 02:18:56;;;;;;;21.80;16.10;;;;;;;11.16;100.00;100870.53;680368;28;1062;-83
2022/09/12 02:19:31;;;;;;;21.50;15.10;;;;;;;11.36;100.00;100872.19;680211;28;1269;-84
2022/09/12 02:20:00;;;;;;;21.80;14.85;;;;;;;11.40;100.00;100877.38;682742;28;4381;-85
2022/09/12 02:20:37;;;;;;;22.05;15.70;;;;;;;11.33;100.00;100893.16;684413;28;1109;-84
2022/09/12 02:21:04;;;;;;;22.27;15.63;;;;;;;11.33;100.00;100901.00;681509;28;1288;-83
2022/09/12 02:21:31;;;;;;;20.38;15.00;;;;;;;11.38;100.00;100867.81;682865;28;1095;-87
2022/09/12 02:21:59;;;;;;;21.10;15.32;;;;;;;11.37;100.00;100890.50;676798;29;1221;-84
2022/09/12 02:22:26;;;;;;;22.73;15.85;;;;;;;11.26;100.00;100866.13;680332;29;1414;-86
2022/09/12 02:22:52;;;;;;;23.58;16.10;;;;;;;11.27;100.00;100870.50;678353;28;1399;-84
2022/09/12 02:23:45;;;;;;;20.65;15.32;;;;;;;11.35;100.00;100870.44;675653;29;4987;-85
2022/09/12 02:24:11;;;;;;;22.67;15.27;;;;;;;11.48;100.00;100882.59;679348;29;1191;-87
2022/09/12 02:24:38;;;;;;;20.60;14.57;;;;;;;11.45;100.00;100874.78;677825;29;1336;-86
2022/09/12 02:25:00;;;;;;;20.15;14.90;;;;;;;11.49;100.00;100865.13;683209;28;1330;-85
2022/09/12 02:25:26;;;;;;;19.83;14.60;;;;;;;11.47;100.00;100893.94;680207;29;1296;-85
2022/09/12 02:25:53;;;;;;;21.15;14.98;;;;;;;11.44;100.00;100866.91;674984;29;1468;-85
2022/09/12 02:26:35;;;;;;;22.05;15.27;;;;;;;11.45;100.00;100889.59;677681;29;4917;-84
2022/09/12 02:27:10;;;;;;;21.10;14.80;;;;;;;11.33;100.00;100865.22;682405;28;1151;-84
2022/09/12 02:28:06;;;;;;;;;;;;;;;;;;;;;
2022/09/12 02:28:33;;;;;;;22.27;15.60;;;;;;;11.10;100.00;100862.69;684545;28;1402;-84
2022/09/12 02:28:59;;;;;;;22.20;15.18;;;;;;;11.15;100.00;100875.78;678720;28;4327;-84
2022/09/12 02:29:30;;;;;;;21.95;15.55;;;;;;;11.15;100.00;100878.38;672620;29;1367;-84
2022/09/12 02:29:56;;;;;;;21.88;14.90;;;;;;;11.08;100.00;100888.00;675503;29;1130;-86
2022/09/12 02:30:18;;;;;;;21.70;15.65;;;;;;;10.99;100.00;100888.03;677461;28;1430;-85
2022/09/12 02:30:59;;;;;;;22.88;16.17;;;;;;;10.88;100.00;100893.28;673862;29;6593;-86
2022/09/12 02:31:42;;;;;;;21.67;15.63;;;;;;;10.93;100.00;100886.28;680551;29;1253;-86
2022/09/12 02:32:11;;;;;;;21.60;15.75;;;;;;;11.02;100.00;100874.94;675114;29;1226;-84
2022/09/12 02:32:39;;;;;;;21.80;15.27;;;;;;;11.08;100.00;100886.25;676511;29;5503;-84
2022/09/12 02:33:26;;;;;;;21.23;14.98;;;;;;;11.16;100.00;100867.91;677975;29;1271;-85
2022/09/12 02:34:21;;;;;;;21.38;15.05;;;;;;;11.32;100.00;100866.09;672936;28;4302;-85
2022/09/12 02:35:21;;;;;;;20.27;14.57;;;;;;;11.11;100.00;100853.13;682809;28;2405;-88
2022/09/12 02:35:45;;;;;;;21.98;15.25;;;;;;;11.14;100.00;100864.41;675565;28;1597;-86
2022/09/12 02:36:36;;;;;;;;;;;;;;;;;;;;;
2022/09/12 02:37:06;;;;;;;19.85;14.02;;;;;;;11.41;100.00;100876.53;670709;28;4749;-84
2022/09/12 02:37:52;;;;;;;21.65;15.27;;;;;;;11.24;100.00;100874.00;683284;28;1402;-84
2022/09/12 02:38:29;;;;;;;22.63;15.02;;;;;;;11.15;100.00;100868.78;683706;28;1465;-84
2022/09/12 02:38:57;;;;;;;20.52;14.80;;;;;;;11.27;100.00;100860.03;681587;28;1131;-85
2022/09/12 02:39:21;;;;;;;20.23;14.52;;;;;;;11.45;100.00;100873.88;676967;29;1458;-85
2022/09/12 02:40:10;;;;;;;21.65;14.38;;;;;;;11.45;100.00;100879.13;678679;28;4406;-85
2022/09/12 02:40:52;;;;;;;19.67;13.93;;;;;;;11.38;100.00;100873.03;679008;28;1386;-87
2022/09/12 02:41:33;;;;;;;20.00;14.15;;;;;;;11.43;100.00;100886.13;680875;29;1303;-87
2022/09/12 02:42:21;;;;;;;19.33;14.23;;;;;;;11.44;100.00;100853.81;682441;28;1424;-86
2022/09/12 02:42:42;;;;;;;20.33;14.68;;;;;;;11.30;100.00;100856.50;681008;28;4337;-87
2022/09/12 02:43:15;;;;;;;20.85;14.90;;;;;;;11.27;100.00;100882.69;680183;29;1423;-85
2022/09/12 02:43:40;;;;;;;19.42;14.05;;;;;;;11.27;100.00;100864.38;678028;29;1215;-83
2022/09/12 02:44:10;;;;;;;19.02;13.98;;;;;;;11.27;100.00;100851.28;681352;29;1332;-84
2022/09/12 02:44:33;;;;;;;21.25;14.18;;;;;;;11.26;100.00;100881.84;683280;28;1281;-86
2022/09/12 02:44:59;;;;;;;19.40;14.30;;;;;;;11.32;100.00;100860.00;676858;29;1314;-86
2022/09/12 02:45:32;;;;;;;;;;;;;;;;;;;;;
2022/09/12 02:46:12;;;;;;;21.67;14.43;;;;;;;11.14;100.00;100859.19;667727;29;5235;-85
2022/09/12 02:46:47;;;;;;;20.30;14.32;;;;;;;11.11;100.00;100889.75;679758;29;1454;-83
2022/09/12 02:47:26;;;;;;;19.13;14.27;;;;;;;10.98;100.00;100875.81;683738;28;1344;-87